sensor_id;sensor_type;location;lat;lon;timestamp;pressure;altitude;pressure_sealevel;temperature;humidity
77799;BME280;66989;50.426;15.352;2024-01-15T00:02:06;96364.69;;;-0.56;85.32
77799;BME280;66989;50.426;15.352;2024-01-15T00:04:36;96356.16;;;-0.58;85.47
77799;BME280;66989;50.426;15.352;2024-01-15T00:07:02;96348.34;;;-0.57;85.23
77799;BME280;66989;50.426;15.352;2024-01-15T00:09:28;96352.56;;;-0.56;85.38
77799;BME280;66989;50.426;15.352;2024-01-15T00:11:53;96345.75;;;-0.57;85.42
77799;BME280;66989;50.426;15.352;2024-01-15T00:14:18;96357.84;;;-0.57;85.29
77799;BME280;66989;50.426;15.352;2024-01-15T00:16:45;96358.03;;;-0.60;85.53
77799;BME280;66989;50.426;15.352;2024-01-15T00:19:11;96351.94;;;-0.59;84.96
77799;BME280;66989;50.426;15.352;2024-01-15T00:21:36;96338.91;;;-0.58;85.29
77799;BME280;66989;50.426;15.352;2024-01-15T00:24:01;96337.22;;;-0.59;85.49
77799;BME280;66989;50.426;15.352;2024-01-15T00:26:27;96329.56;;;-0.60;85.24
77799;BME280;66989;50.426;15.352;2024-01-15T00:28:52;96334.03;;;-0.63;85.38
77799;BME280;66989;50.426;15.352;2024-01-15T00:31:18;96326.25;;;-0.63;85.63
77799;BME280;66989;50.426;15.352;2024-01-15T00:33:43;96317.66;;;-0.63;84.92
77799;BME280;66989;50.426;15.352;2024-01-15T00:36:09;96299.34;;;-0.60;84.63
77799;BME280;66989;50.426;15.352;2024-01-15T00:38:34;96308.97;;;-0.62;84.37
77799;BME280;66989;50.426;15.352;2024-01-15T00:40:59;96301.22;;;-0.62;84.45
77799;BME280;66989;50.426;15.352;2024-01-15T00:43:25;96298.63;;;-0.62;84.77
77799;BME280;66989;50.426;15.352;2024-01-15T00:45:50;96299.56;;;-0.63;84.69
77799;BME280;66989;50.426;15.352;2024-01-15T00:48:15;96299.56;;;-0.63;84.44
77799;BME280;66989;50.426;15.352;2024-01-15T00:50:41;96294.38;;;-0.63;84.48
77799;BME280;66989;50.426;15.352;2024-01-15T00:53:06;96283.47;;;-0.68;84.08
77799;BME280;66989;50.426;15.352;2024-01-15T00:55:33;96287.72;;;-0.67;84.40
77799;BME280;66989;50.426;15.352;2024-01-15T00:57:58;96286.78;;;-0.66;84.78
77799;BME280;66989;50.426;15.352;2024-01-15T01:00:23;96278.84;;;-0.63;84.72
77799;BME280;66989;50.426;15.352;2024-01-15T01:02:49;96285.03;;;-0.66;84.57
77799;BME280;66989;50.426;15.352;2024-01-15T01:05:14;96289.38;;;-0.66;84.75
77799;BME280;66989;50.426;15.352;2024-01-15T01:07:39;96290.50;;;-0.70;84.47
77799;BME280;66989;50.426;15.352;2024-01-15T01:10:05;96288.94;;;-0.73;85.20
77799;BME280;66989;50.426;15.352;2024-01-15T01:12:31;96288.13;;;-0.73;84.75
77799;BME280;66989;50.426;15.352;2024-01-15T01:14:57;96278.66;;;-0.74;84.30
77799;BME280;66989;50.426;15.352;2024-01-15T01:17:22;96269.78;;;-0.70;83.94
77799;BME280;66989;50.426;15.352;2024-01-15T01:19:49;96275.78;;;-0.70;84.11
77799;BME280;66989;50.426;15.352;2024-01-15T01:22:15;96271.44;;;-0.69;84.45
77799;BME280;66989;50.426;15.352;2024-01-15T01:24:40;96274.25;;;-0.72;84.58
77799;BME280;66989;50.426;15.352;2024-01-15T01:27:05;96266.47;;;-0.72;84.67
77799;BME280;66989;50.426;15.352;2024-01-15T01:29:31;96271.66;;;-0.72;84.72
77799;BME280;66989;50.426;15.352;2024-01-15T01:31:56;96264.84;;;-0.73;84.05
77799;BME280;66989;50.426;15.352;2024-01-15T01:34:22;96268.44;;;-0.76;85.08
77799;BME280;66989;50.426;15.352;2024-01-15T01:36:48;96271.84;;;-0.75;84.62
77799;BME280;66989;50.426;15.352;2024-01-15T01:39:13;96269.06;;;-0.72;84.77
77799;BME280;66989;50.426;15.352;2024-01-15T01:41:39;96270.00;;;-0.73;84.35
77799;BME280;66989;50.426;15.352;2024-01-15T01:44:05;96264.91;;;-0.75;84.85
77799;BME280;66989;50.426;15.352;2024-01-15T01:46:31;96250.31;;;-0.76;84.04
77799;BME280;66989;50.426;15.352;2024-01-15T01:48:57;96230.44;;;-0.75;83.59
77799;BME280;66989;50.426;15.352;2024-01-15T01:51:24;96238.03;;;-0.72;84.07
77799;BME280;66989;50.426;15.352;2024-01-15T01:53:50;96229.31;;;-0.71;83.50
77799;BME280;66989;50.426;15.352;2024-01-15T01:56:16;96232.97;;;-0.74;83.06
77799;BME280;66989;50.426;15.352;2024-01-15T01:58:43;96227.84;;;-0.75;83.64
77799;BME280;66989;50.426;15.352;2024-01-15T02:01:10;96225.66;;;-0.81;84.11
77799;BME280;66989;50.426;15.352;2024-01-15T02:03:37;96219.94;;;-0.86;84.73
77799;BME280;66989;50.426;15.352;2024-01-15T02:06:02;96212.19;;;-0.86;84.35
77799;BME280;66989;50.426;15.352;2024-01-15T02:08:28;96226.06;;;-0.88;84.40
77799;BME280;66989;50.426;15.352;2024-01-15T02:10:54;96227.72;;;-0.86;84.22
77799;BME280;66989;50.426;15.352;2024-01-15T02:13:20;96214.97;;;-0.90;84.68
77799;BME280;66989;50.426;15.352;2024-01-15T02:15:45;96207.19;;;-0.90;84.99
77799;BME280;66989;50.426;15.352;2024-01-15T02:18:11;96204.53;;;-0.88;84.43
77799;BME280;66989;50.426;15.352;2024-01-15T02:20:36;96216.00;;;-0.92;84.99
77799;BME280;66989;50.426;15.352;2024-01-15T02:23:12;96204.06;;;-0.95;84.58
77799;BME280;66989;50.426;15.352;2024-01-15T02:25:41;96210.19;;;-0.96;85.15
77799;BME280;66989;50.426;15.352;2024-01-15T02:28:09;96207.59;;;-0.96;84.87
77799;BME280;66989;50.426;15.352;2024-01-15T02:30:37;96207.59;;;-0.96;85.28
77799;BME280;66989;50.426;15.352;2024-01-15T02:33:04;96197.88;;;-0.92;85.43
77799;BME280;66989;50.426;15.352;2024-01-15T02:35:29;96194.66;;;-0.96;85.74
77799;BME280;66989;50.426;15.352;2024-01-15T02:37:54;96209.47;;;-0.98;86.41
77799;BME280;66989;50.426;15.352;2024-01-15T02:40:20;96208.09;;;-1.03;87.12
77799;BME280;66989;50.426;15.352;2024-01-15T02:42:45;96205.78;;;-1.08;87.66
77799;BME280;66989;50.426;15.352;2024-01-15T02:45:11;96208.19;;;-1.05;86.70
77799;BME280;66989;50.426;15.352;2024-01-15T02:47:36;96201.34;;;-1.06;86.48
77799;BME280;66989;50.426;15.352;2024-01-15T02:50:01;96195.97;;;-1.03;85.99
77799;BME280;66989;50.426;15.352;2024-01-15T02:52:27;96196.81;;;-1.02;85.85
77799;BME280;66989;50.426;15.352;2024-01-15T02:54:52;96196.81;;;-1.02;85.62
77799;BME280;66989;50.426;15.352;2024-01-15T02:57:18;96190.81;;;-1.03;85.79
77799;BME280;66989;50.426;15.352;2024-01-15T02:59:43;96183.59;;;-0.98;85.44
77799;BME280;66989;50.426;15.352;2024-01-15T03:02:09;96185.25;;;-0.97;84.51
77799;BME280;66989;50.426;15.352;2024-01-15T03:04:34;96175.94;;;-0.99;85.25
77799;BME280;66989;50.426;15.352;2024-01-15T03:06:59;96174.06;;;-0.97;85.12
77799;BME280;66989;50.426;15.352;2024-01-15T03:09:25;96166.50;;;-1.00;84.63
77799;BME280;66989;50.426;15.352;2024-01-15T03:11:50;96164.66;;;-0.98;84.28
77799;BME280;66989;50.426;15.352;2024-01-15T03:14:16;96170.78;;;-0.99;84.83
77799;BME280;66989;50.426;15.352;2024-01-15T03:16:41;96177.38;;;-0.95;84.03
77799;BME280;66989;50.426;15.352;2024-01-15T03:19:07;96165.59;;;-0.99;84.39
77799;BME280;66989;50.426;15.352;2024-01-15T03:21:32;96166.13;;;-0.94;83.83
77799;BME280;66989;50.426;15.352;2024-01-15T03:23:58;96170.09;;;-0.89;84.15
77799;BME280;66989;50.426;15.352;2024-01-15T03:26:24;96168.41;;;-0.90;84.63
77799;BME280;66989;50.426;15.352;2024-01-15T03:28:49;96171.72;;;-0.88;84.82
77799;BME280;66989;50.426;15.352;2024-01-15T03:31:14;96157.16;;;-0.89;84.54
77799;BME280;66989;50.426;15.352;2024-01-15T03:33:40;96168.91;;;-0.97;84.73
77799;BME280;66989;50.426;15.352;2024-01-15T03:36:05;96165.38;;;-0.96;83.92
77799;BME280;66989;50.426;15.352;2024-01-15T03:38:31;96176.00;;;-1.01;84.95
77799;BME280;66989;50.426;15.352;2024-01-15T03:40:56;96185.53;;;-1.01;84.40
77799;BME280;66989;50.426;15.352;2024-01-15T03:43:22;96165.88;;;-1.04;84.34
77799;BME280;66989;50.426;15.352;2024-01-15T03:45:47;96170.00;;;-1.01;84.46
77799;BME280;66989;50.426;15.352;2024-01-15T03:48:13;96179.97;;;-0.95;82.97
77799;BME280;66989;50.426;15.352;2024-01-15T03:50:38;96167.97;;;-0.96;83.36
77799;BME280;66989;50.426;15.352;2024-01-15T03:53:03;96185.06;;;-0.94;82.78
77799;BME280;66989;50.426;15.352;2024-01-15T03:55:29;96185.59;;;-0.89;82.98
77799;BME280;66989;50.426;15.352;2024-01-15T03:57:54;96176.25;;;-0.91;82.96
77799;BME280;66989;50.426;15.352;2024-01-15T04:00:20;96173.56;;;-0.90;82.51
77799;BME280;66989;50.426;15.352;2024-01-15T04:02:45;96163.97;;;-0.88;82.90
77799;BME280;66989;50.426;15.352;2024-01-15T04:05:10;96169.16;;;-0.88;82.51
77799;BME280;66989;50.426;15.352;2024-01-15T04:07:36;96154.47;;;-0.87;82.10
77799;BME280;66989;50.426;15.352;2024-01-15T04:10:02;96170.97;;;-0.90;82.73
77799;BME280;66989;50.426;15.352;2024-01-15T04:12:28;96169.25;;;-0.89;82.53
77799;BME280;66989;50.426;15.352;2024-01-15T04:14:53;96165.00;;;-0.90;82.70
77799;BME280;66989;50.426;15.352;2024-01-15T04:17:18;96165.75;;;-0.88;82.61
77799;BME280;66989;50.426;15.352;2024-01-15T04:19:44;96152.81;;;-0.88;82.59
77799;BME280;66989;50.426;15.352;2024-01-15T04:22:10;96153.41;;;-0.84;82.54
77799;BME280;66989;50.426;15.352;2024-01-15T04:24:35;96157.97;;;-0.88;82.68
77799;BME280;66989;50.426;15.352;2024-01-15T04:27:00;96143.47;;;-0.91;82.79
77799;BME280;66989;50.426;15.352;2024-01-15T04:29:26;96156.69;;;-0.95;82.97
77799;BME280;66989;50.426;15.352;2024-01-15T04:31:52;96146.34;;;-0.95;82.62
77799;BME280;66989;50.426;15.352;2024-01-15T04:34:18;96161.78;;;-0.94;82.83
77799;BME280;66989;50.426;15.352;2024-01-15T04:36:43;96154.22;;;-0.97;82.85
77799;BME280;66989;50.426;15.352;2024-01-15T04:39:08;96157.00;;;-1.00;83.19
77799;BME280;66989;50.426;15.352;2024-01-15T04:41:34;96159.59;;;-1.00;83.03
77799;BME280;66989;50.426;15.352;2024-01-15T04:43:59;96155.44;;;-1.02;83.53
77799;BME280;66989;50.426;15.352;2024-01-15T04:46:26;96155.00;;;-1.09;83.75
77799;BME280;66989;50.426;15.352;2024-01-15T04:48:52;96148.06;;;-1.08;83.21
77799;BME280;66989;50.426;15.352;2024-01-15T04:51:17;96148.34;;;-1.13;83.81
77799;BME280;66989;50.426;15.352;2024-01-15T04:53:42;96149.38;;;-1.16;83.90
77799;BME280;66989;50.426;15.352;2024-01-15T04:56:07;96145.34;;;-1.20;83.65
77799;BME280;66989;50.426;15.352;2024-01-15T04:58:33;96150.88;;;-1.26;84.33
77799;BME280;66989;50.426;15.352;2024-01-15T05:00:58;96148.28;;;-1.26;84.58
77799;BME280;66989;50.426;15.352;2024-01-15T05:03:24;96151.09;;;-1.29;84.28
77799;BME280;66989;50.426;15.352;2024-01-15T05:05:49;96141.03;;;-1.33;84.60
77799;BME280;66989;50.426;15.352;2024-01-15T05:08:14;96144.72;;;-1.37;85.03
77799;BME280;66989;50.426;15.352;2024-01-15T05:10:40;96142.06;;;-1.36;84.79
77799;BME280;66989;50.426;15.352;2024-01-15T05:13:05;96137.91;;;-1.38;85.18
77799;BME280;66989;50.426;15.352;2024-01-15T05:15:30;96139.47;;;-1.36;85.08
77799;BME280;66989;50.426;15.352;2024-01-15T05:17:56;96138.72;;;-1.38;86.07
77799;BME280;66989;50.426;15.352;2024-01-15T05:20:21;96164.13;;;-1.45;86.39
77799;BME280;66989;50.426;15.352;2024-01-15T05:22:47;96143.09;;;-1.53;86.80
77799;BME280;66989;50.426;15.352;2024-01-15T05:25:12;96138.03;;;-1.54;87.23
77799;BME280;66989;50.426;15.352;2024-01-15T05:27:37;96149.47;;;-1.58;86.61
77799;BME280;66989;50.426;15.352;2024-01-15T05:30:03;96152.97;;;-1.59;87.42
77799;BME280;66989;50.426;15.352;2024-01-15T05:32:32;96164.97;;;-1.58;87.31
77799;BME280;66989;50.426;15.352;2024-01-15T05:34:57;96156.28;;;-1.57;87.13
77799;BME280;66989;50.426;15.352;2024-01-15T05:37:25;96152.88;;;-1.58;87.18
77799;BME280;66989;50.426;15.352;2024-01-15T05:39:52;96165.63;;;-1.55;86.89
77799;BME280;66989;50.426;15.352;2024-01-15T05:42:19;96153.41;;;-1.53;86.38
77799;BME280;66989;50.426;15.352;2024-01-15T05:44:46;96167.16;;;-1.52;87.05
77799;BME280;66989;50.426;15.352;2024-01-15T05:47:11;96168.84;;;-1.51;87.16
77799;BME280;66989;50.426;15.352;2024-01-15T05:49:36;96156.66;;;-1.49;86.73
77799;BME280;66989;50.426;15.352;2024-01-15T05:52:02;96164.13;;;-1.45;86.17
77799;BME280;66989;50.426;15.352;2024-01-15T05:54:27;96170.84;;;-1.42;86.11
77799;BME280;66989;50.426;15.352;2024-01-15T05:56:53;96170.03;;;-1.43;85.84
77799;BME280;66989;50.426;15.352;2024-01-15T05:59:18;96175.28;;;-1.44;86.18
77799;BME280;66989;50.426;15.352;2024-01-15T06:01:43;96170.78;;;-1.41;85.94
77799;BME280;66989;50.426;15.352;2024-01-15T06:04:09;96156.91;;;-1.39;85.84
77799;BME280;66989;50.426;15.352;2024-01-15T06:06:34;96156.44;;;-1.32;85.44
77799;BME280;66989;50.426;15.352;2024-01-15T06:09:00;96165.41;;;-1.37;86.07
77799;BME280;66989;50.426;15.352;2024-01-15T06:11:33;96167.06;;;-1.36;85.58
77799;BME280;66989;50.426;15.352;2024-01-15T06:13:59;96170.50;;;-1.36;85.60
77799;BME280;66989;50.426;15.352;2024-01-15T06:16:25;96162.81;;;-1.37;85.70
77799;BME280;66989;50.426;15.352;2024-01-15T06:18:51;96162.09;;;-1.39;85.25
77799;BME280;66989;50.426;15.352;2024-01-15T06:21:16;96173.16;;;-1.37;84.89
77799;BME280;66989;50.426;15.352;2024-01-15T06:23:42;96174.25;;;-1.42;85.44
77799;BME280;66989;50.426;15.352;2024-01-15T06:26:07;96179.53;;;-1.43;84.62
77799;BME280;66989;50.426;15.352;2024-01-15T06:28:33;96186.72;;;-1.48;85.53
77799;BME280;66989;50.426;15.352;2024-01-15T06:30:58;96190.78;;;-1.44;84.42
77799;BME280;66989;50.426;15.352;2024-01-15T06:33:24;96190.16;;;-1.48;84.66
77799;BME280;66989;50.426;15.352;2024-01-15T06:35:50;96191.44;;;-1.55;84.49
77799;BME280;66989;50.426;15.352;2024-01-15T06:38:16;96200.31;;;-1.59;85.23
77799;BME280;66989;50.426;15.352;2024-01-15T06:40:41;96205.56;;;-1.60;84.70
77799;BME280;66989;50.426;15.352;2024-01-15T06:43:11;96208.22;;;-1.62;84.74
77799;BME280;66989;50.426;15.352;2024-01-15T06:45:36;96210.38;;;-1.69;84.64
77799;BME280;66989;50.426;15.352;2024-01-15T06:48:02;96208.59;;;-1.68;84.53
77799;BME280;66989;50.426;15.352;2024-01-15T06:50:27;96218.94;;;-1.68;83.85
77799;BME280;66989;50.426;15.352;2024-01-15T06:52:53;96213.22;;;-1.73;84.15
77799;BME280;66989;50.426;15.352;2024-01-15T06:55:19;96200.78;;;-1.81;83.67
77799;BME280;66989;50.426;15.352;2024-01-15T06:57:45;96217.28;;;-1.83;83.51
77799;BME280;66989;50.426;15.352;2024-01-15T07:00:10;96218.97;;;-1.82;83.32
77799;BME280;66989;50.426;15.352;2024-01-15T07:02:36;96214.06;;;-1.87;83.29
77799;BME280;66989;50.426;15.352;2024-01-15T07:05:01;96223.72;;;-1.90;83.96
77799;BME280;66989;50.426;15.352;2024-01-15T07:07:26;96222.06;;;-1.91;83.40
77799;BME280;66989;50.426;15.352;2024-01-15T07:09:55;96243.66;;;-1.92;84.01
77799;BME280;66989;50.426;15.352;2024-01-15T07:12:20;96235.97;;;-1.94;83.71
77799;BME280;66989;50.426;15.352;2024-01-15T07:14:45;96246.25;;;-1.92;84.36
77799;BME280;66989;50.426;15.352;2024-01-15T07:17:11;96245.13;;;-1.88;83.92
77799;BME280;66989;50.426;15.352;2024-01-15T07:19:36;96246.44;;;-1.81;83.79
77799;BME280;66989;50.426;15.352;2024-01-15T07:22:02;96247.00;;;-1.76;82.79
77799;BME280;66989;50.426;15.352;2024-01-15T07:24:27;96247.00;;;-1.76;83.21
77799;BME280;66989;50.426;15.352;2024-01-15T07:26:52;96250.22;;;-1.73;83.15
77799;BME280;66989;50.426;15.352;2024-01-15T07:29:19;96246.53;;;-1.69;82.75
77799;BME280;66989;50.426;15.352;2024-01-15T07:31:51;96251.59;;;-1.67;83.33
77799;BME280;66989;50.426;15.352;2024-01-15T07:34:17;96259.19;;;-1.64;82.73
77799;BME280;66989;50.426;15.352;2024-01-15T07:36:46;96261.31;;;-1.56;82.42
77799;BME280;66989;50.426;15.352;2024-01-15T07:39:11;96254.84;;;-1.49;82.13
77799;BME280;66989;50.426;15.352;2024-01-15T07:41:37;96264.44;;;-1.37;81.31
77799;BME280;66989;50.426;15.352;2024-01-15T07:44:02;96260.94;;;-1.36;81.56
77799;BME280;66989;50.426;15.352;2024-01-15T07:46:28;96266.38;;;-1.26;81.39
77799;BME280;66989;50.426;15.352;2024-01-15T07:48:55;96261.97;;;-1.24;81.25
77799;BME280;66989;50.426;15.352;2024-01-15T07:51:25;96269.50;;;-1.07;81.35
77799;BME280;66989;50.426;15.352;2024-01-15T07:53:53;96271.03;;;-0.90;80.02
77799;BME280;66989;50.426;15.352;2024-01-15T07:56:19;96254.78;;;-0.92;79.45
77799;BME280;66989;50.426;15.352;2024-01-15T07:58:44;96261.63;;;-0.91;78.98
77799;BME280;66989;50.426;15.352;2024-01-15T08:01:10;96256.19;;;-1.01;79.84
77799;BME280;66989;50.426;15.352;2024-01-15T08:03:35;96251.69;;;-1.11;80.25
77799;BME280;66989;50.426;15.352;2024-01-15T08:06:01;96249.38;;;-1.16;80.06
77799;BME280;66989;50.426;15.352;2024-01-15T08:08:27;96258.34;;;-1.22;80.31
77799;BME280;66989;50.426;15.352;2024-01-15T08:10:52;96247.00;;;-1.19;79.55
77799;BME280;66989;50.426;15.352;2024-01-15T08:13:18;96245.63;;;-1.25;80.03
77799;BME280;66989;50.426;15.352;2024-01-15T08:15:44;96246.16;;;-1.20;79.72
77799;BME280;66989;50.426;15.352;2024-01-15T08:18:09;96252.34;;;-1.22;80.03
77799;BME280;66989;50.426;15.352;2024-01-15T08:20:34;96251.13;;;-1.17;79.11
77799;BME280;66989;50.426;15.352;2024-01-15T08:23:00;96252.59;;;-1.12;79.39
77799;BME280;66989;50.426;15.352;2024-01-15T08:25:25;96250.56;;;-1.07;79.20
77799;BME280;66989;50.426;15.352;2024-01-15T08:27:51;96241.50;;;-1.00;79.07
77799;BME280;66989;50.426;15.352;2024-01-15T08:30:17;96244.72;;;-0.97;79.77
77799;BME280;66989;50.426;15.352;2024-01-15T08:32:44;96247.75;;;-0.90;79.31
77799;BME280;66989;50.426;15.352;2024-01-15T08:35:09;96246.75;;;-0.88;78.66
77799;BME280;66989;50.426;15.352;2024-01-15T08:37:35;96237.88;;;-0.83;78.19
77799;BME280;66989;50.426;15.352;2024-01-15T08:40:00;96227.31;;;-0.80;78.74
77799;BME280;66989;50.426;15.352;2024-01-15T08:42:26;96235.84;;;-0.78;78.80
77799;BME280;66989;50.426;15.352;2024-01-15T08:44:51;96237.75;;;-0.68;77.26
77799;BME280;66989;50.426;15.352;2024-01-15T08:47:16;96233.78;;;-0.73;77.66
77799;BME280;66989;50.426;15.352;2024-01-15T08:49:42;96238.03;;;-0.72;77.63
77799;BME280;66989;50.426;15.352;2024-01-15T08:52:09;96235.44;;;-0.72;78.15
77799;BME280;66989;50.426;15.352;2024-01-15T08:54:35;96239.28;;;-0.65;77.05
77799;BME280;66989;50.426;15.352;2024-01-15T08:57:00;96243.88;;;-0.56;76.78
77799;BME280;66989;50.426;15.352;2024-01-15T08:59:26;96245.06;;;-0.47;75.83
77799;BME280;66989;50.426;15.352;2024-01-15T09:01:52;96243.28;;;-0.47;75.37
77799;BME280;66989;50.426;15.352;2024-01-15T09:04:18;96244.13;;;-0.46;75.67
77799;BME280;66989;50.426;15.352;2024-01-15T09:06:47;96249.59;;;-0.51;75.61
77799;BME280;66989;50.426;15.352;2024-01-15T09:09:13;96248.56;;;-0.48;76.03
77799;BME280;66989;50.426;15.352;2024-01-15T09:11:40;96254.94;;;-0.54;76.29
77799;BME280;66989;50.426;15.352;2024-01-15T09:14:07;96257.47;;;-0.52;75.68
77799;BME280;66989;50.426;15.352;2024-01-15T09:16:33;96260.66;;;-0.49;75.26
77799;BME280;66989;50.426;15.352;2024-01-15T09:18:59;96259.00;;;-0.50;75.87
77799;BME280;66989;50.426;15.352;2024-01-15T09:21:25;96251.53;;;-0.54;76.13
77799;BME280;66989;50.426;15.352;2024-01-15T09:23:50;96252.56;;;-0.57;75.24
77799;BME280;66989;50.426;15.352;2024-01-15T09:26:16;96255.88;;;-0.55;75.62
77799;BME280;66989;50.426;15.352;2024-01-15T09:28:41;96265.69;;;-0.60;75.06
77799;BME280;66989;50.426;15.352;2024-01-15T09:31:07;96262.00;;;-0.56;75.52
77799;BME280;66989;50.426;15.352;2024-01-15T09:33:33;96273.19;;;-0.55;75.90
77799;BME280;66989;50.426;15.352;2024-01-15T09:36:05;96267.16;;;-0.56;75.46
77799;BME280;66989;50.426;15.352;2024-01-15T09:38:31;96263.47;;;-0.52;74.89
77799;BME280;66989;50.426;15.352;2024-01-15T09:40:57;96271.78;;;-0.47;76.02
77799;BME280;66989;50.426;15.352;2024-01-15T09:43:22;96260.47;;;-0.46;75.07
77799;BME280;66989;50.426;15.352;2024-01-15T09:46:02;96259.16;;;-0.39;75.95
77799;BME280;66989;50.426;15.352;2024-01-15T09:48:28;96261.16;;;-0.29;75.69
77799;BME280;66989;50.426;15.352;2024-01-15T09:50:54;96253.63;;;-0.20;73.96
77799;BME280;66989;50.426;15.352;2024-01-15T09:53:21;96243.28;;;-0.07;73.51
77799;BME280;66989;50.426;15.352;2024-01-15T09:55:46;96237.19;;;0.07;73.31
77799;BME280;66989;50.426;15.352;2024-01-15T09:58:12;96233.88;;;0.17;72.52
77799;BME280;66989;50.426;15.352;2024-01-15T10:00:39;96232.56;;;0.25;73.04
77799;BME280;66989;50.426;15.352;2024-01-15T10:03:08;96222.28;;;0.23;72.31
77799;BME280;66989;50.426;15.352;2024-01-15T10:05:35;96229.53;;;0.18;72.55
77799;BME280;66989;50.426;15.352;2024-01-15T10:08:01;96232.13;;;0.18;72.29
77799;BME280;66989;50.426;15.352;2024-01-15T10:10:28;96234.09;;;0.27;71.76
77799;BME280;66989;50.426;15.352;2024-01-15T10:12:54;96217.09;;;0.36;72.06
77799;BME280;66989;50.426;15.352;2024-01-15T10:15:23;96215.97;;;0.40;71.15
77799;BME280;66989;50.426;15.352;2024-01-15T10:17:49;96217.28;;;0.58;70.92
77799;BME280;66989;50.426;15.352;2024-01-15T10:20:15;96219.97;;;0.69;70.28
77799;BME280;66989;50.426;15.352;2024-01-15T10:22:41;96207.50;;;0.75;69.75
77799;BME280;66989;50.426;15.352;2024-01-15T10:25:11;96210.69;;;0.91;69.47
77799;BME280;66989;50.426;15.352;2024-01-15T10:27:37;96214.66;;;0.84;68.78
77799;BME280;66989;50.426;15.352;2024-01-15T10:30:02;96214.34;;;0.76;69.46
77799;BME280;66989;50.426;15.352;2024-01-15T10:32:28;96217.56;;;0.79;69.38
77799;BME280;66989;50.426;15.352;2024-01-15T10:34:54;96210.72;;;0.65;69.98
77799;BME280;66989;50.426;15.352;2024-01-15T10:37:19;96207.63;;;0.60;69.73
77799;BME280;66989;50.426;15.352;2024-01-15T10:39:46;96210.56;;;0.56;70.24
77799;BME280;66989;50.426;15.352;2024-01-15T10:42:12;96209.72;;;0.42;69.91
77799;BME280;66989;50.426;15.352;2024-01-15T10:44:37;96204.22;;;0.34;70.96
77799;BME280;66989;50.426;15.352;2024-01-15T10:47:04;96208.59;;;0.34;70.29
77799;BME280;66989;50.426;15.352;2024-01-15T10:49:29;96208.91;;;0.29;70.48
77799;BME280;66989;50.426;15.352;2024-01-15T10:51:56;96196.44;;;0.34;70.26
77799;BME280;66989;50.426;15.352;2024-01-15T10:54:23;96202.59;;;0.46;70.22
77799;BME280;66989;50.426;15.352;2024-01-15T10:56:50;96213.31;;;0.65;69.14
77799;BME280;66989;50.426;15.352;2024-01-15T10:59:16;96197.72;;;0.91;68.37
77799;BME280;66989;50.426;15.352;2024-01-15T11:01:42;96195.97;;;1.15;67.71
77799;BME280;66989;50.426;15.352;2024-01-15T11:04:08;96209.34;;;1.46;66.54
77799;BME280;66989;50.426;15.352;2024-01-15T11:06:42;96199.22;;;1.78;65.10
77799;BME280;66989;50.426;15.352;2024-01-15T11:09:07;96195.13;;;1.98;63.99
77799;BME280;66989;50.426;15.352;2024-01-15T11:11:35;96195.91;;;2.22;63.71
77799;BME280;66989;50.426;15.352;2024-01-15T11:14:01;96193.31;;;2.34;63.14
77799;BME280;66989;50.426;15.352;2024-01-15T11:16:53;96186.22;;;2.36;62.76
77799;BME280;66989;50.426;15.352;2024-01-15T11:19:19;96195.09;;;2.33;62.16
77799;BME280;66989;50.426;15.352;2024-01-15T11:21:45;96192.00;;;2.17;62.87
77799;BME280;66989;50.426;15.352;2024-01-15T11:24:10;96190.09;;;2.19;62.59
77799;BME280;66989;50.426;15.352;2024-01-15T11:26:45;96191.88;;;2.30;63.15
77799;BME280;66989;50.426;15.352;2024-01-15T11:29:28;96188.09;;;2.11;63.26
77799;BME280;66989;50.426;15.352;2024-01-15T11:32:16;96193.28;;;2.00;63.51
77799;BME280;66989;50.426;15.352;2024-01-15T11:34:58;96196.25;;;2.51;76.46
77799;BME280;66989;50.426;15.352;2024-01-15T11:37:26;96190.13;;;2.64;68.55
77799;BME280;66989;50.426;15.352;2024-01-15T11:39:53;96189.88;;;2.44;63.50
77799;BME280;66989;50.426;15.352;2024-01-15T11:42:19;96184.44;;;2.25;63.97
77799;BME280;66989;50.426;15.352;2024-01-15T11:44:45;96191.50;;;2.01;64.88
77799;BME280;66989;50.426;15.352;2024-01-15T11:47:12;96199.16;;;2.02;64.89
77799;BME280;66989;50.426;15.352;2024-01-15T11:50:03;96190.75;;;1.87;64.88
77799;BME280;66989;50.426;15.352;2024-01-15T11:52:35;96186.06;;;2.04;64.18
77799;BME280;66989;50.426;15.352;2024-01-15T11:57:45;96180.28;;;2.00;64.02
77799;BME280;66989;50.426;15.352;2024-01-15T12:00:12;96175.78;;;2.13;63.96
77799;BME280;66989;50.426;15.352;2024-01-15T12:02:44;96166.00;;;2.39;63.50
77799;BME280;66989;50.426;15.352;2024-01-15T12:05:12;96158.94;;;2.53;63.21
77799;BME280;66989;50.426;15.352;2024-01-15T12:07:39;96172.03;;;2.51;62.91
77799;BME280;66989;50.426;15.352;2024-01-15T12:10:11;96169.22;;;2.54;61.92
77799;BME280;66989;50.426;15.352;2024-01-15T12:15:09;96162.44;;;2.18;63.47
77799;BME280;66989;50.426;15.352;2024-01-15T12:17:35;96171.03;;;1.96;63.06
77799;BME280;66989;50.426;15.352;2024-01-15T12:20:03;96157.00;;;2.10;64.14
77799;BME280;66989;50.426;15.352;2024-01-15T12:22:28;96152.06;;;2.29;63.16
77799;BME280;66989;50.426;15.352;2024-01-15T12:24:54;96154.19;;;3.23;60.90
77799;BME280;66989;50.426;15.352;2024-01-15T12:27:20;96146.09;;;4.42;57.94
77799;BME280;66989;50.426;15.352;2024-01-15T12:29:45;96140.03;;;6.47;52.42
77799;BME280;66989;50.426;15.352;2024-01-15T12:32:12;96128.63;;;8.10;47.57
77799;BME280;66989;50.426;15.352;2024-01-15T12:34:38;96112.66;;;9.40;44.79
77799;BME280;66989;50.426;15.352;2024-01-15T12:37:03;96135.28;;;7.96;44.98
77799;BME280;66989;50.426;15.352;2024-01-15T12:39:29;96136.63;;;6.74;47.90
77799;BME280;66989;50.426;15.352;2024-01-15T12:41:54;96126.28;;;5.69;50.17
77799;BME280;66989;50.426;15.352;2024-01-15T12:44:21;96143.19;;;4.66;53.05
77799;BME280;66989;50.426;15.352;2024-01-15T12:46:47;96146.91;;;3.91;55.82
77799;BME280;66989;50.426;15.352;2024-01-15T12:49:13;96137.31;;;3.39;57.83
77799;BME280;66989;50.426;15.352;2024-01-15T12:51:38;96146.50;;;2.78;59.78
77799;BME280;66989;50.426;15.352;2024-01-15T12:54:04;96137.19;;;2.42;61.57